Time;durP1;ratioP1;P1;durP2;ratioP2;P2;SDS_P1;SDS_P2;PMS_P1;PMS_P2;Temp;Humidity;BMP_temperature;BMP_pressure;BME280_temperature;BME280_humidity;BME280_pressure;Samples;Min_cycle;Max_cycle;Signal;HPM_P1;HPM_P2
2021/11/27 00:02:29;;;;;;;3.03;1.40;;;;;;;;;;4961239;28;20521;-65
2021/11/27 00:04:59;;;;;;;3.40;1.13;;;;;;;;;;4932502;29;20447;-66
2021/11/27 00:07:30;;;;;;;3.53;1.65;;;;;;;;;;4932907;29;20052;-66
2021/11/27 00:10:00;;;;;;;3.42;1.35;;;;;;;;;;4957630;28;20431;-65
2021/11/27 00:12:31;;;;;;;4.00;1.13;;;;;;;;;;4941655;29;20043;-68
2021/11/27 00:15:03;;;;;;;2.90;1.30;;;;;;;;;;4935169;29;20043;-65
2021/11/27 00:17:36;;;;;;;3.30;1.10;;;;;;;;;;4928754;29;20059;-69
2021/11/27 00:20:12;;;;;;;4.18;1.20;;;;;;;;;;4951398;29;20051;-65
2021/11/27 00:22:43;;;;;;;3.13;1.15;;;;;;;;;;4913977;29;21250;-66
2021/11/27 00:25:14;;;;;;;3.08;1.38;;;;;;;;;;4929048;29;20057;-68
2021/11/27 00:27:45;;;;;;;5.40;1.55;;;;;;;;;;4892474;29;20064;-69
2021/11/27 00:30:21;;;;;;;4.38;1.45;;;;;;;;;;4902362;29;20049;-69
2021/11/27 00:32:52;;;;;;;2.63;1.40;;;;;;;;;;4909543;29;20052;-65
2021/11/27 00:35:24;;;;;;;4.03;1.40;;;;;;;;;;4894346;29;20060;-66
2021/11/27 00:37:57;;;;;;;7.10;1.33;;;;;;;;;;4909986;29;20061;-65
2021/11/27 00:40:29;;;;;;;4.35;1.52;;;;;;;;;;4894456;29;20521;-66
2021/11/27 00:43:00;;;;;;;5.57;1.42;;;;;;;;;;4894002;29;20063;-68
2021/11/27 00:45:30;;;;;;;4.18;1.50;;;;;;;;;;4909325;29;20076;-66
2021/11/27 00:48:01;;;;;;;5.60;1.33;;;;;;;;;;4900607;29;20056;-66
2021/11/27 00:50:38;;;;;;;4.20;1.65;;;;;;;;;;4907685;29;20479;-65
2021/11/27 00:53:09;;;;;;;5.03;1.50;;;;;;;;;;4912880;29;20055;-66
2021/11/27 00:55:39;;;;;;;2.70;1.42;;;;;;;;;;4912938;29;20068;-65
2021/11/27 00:58:10;;;;;;;3.80;1.60;;;;;;;;;;4944104;29;20043;-66
2021/11/27 01:00:47;;;;;;;3.85;1.73;;;;;;;;;;4919338;29;20047;-65
2021/11/27 01:03:20;;;;;;;4.13;1.75;;;;;;;;;;4950679;29;20055;-66
2021/11/27 01:05:53;;;;;;;3.50;1.45;;;;;;;;;;4931409;29;20047;-66
2021/11/27 01:08:26;;;;;;;4.13;1.48;;;;;;;;;;4905659;29;20056;-66
2021/11/27 01:11:04;;;;;;;3.90;1.45;;;;;;;;;;4881454;29;20049;-66
2021/11/27 01:13:38;;;;;;;3.78;1.70;;;;;;;;;;4890617;29;20061;-68
2021/11/27 01:16:09;;;;;;;4.13;1.55;;;;;;;;;;4912224;29;20055;-66
2021/11/27 01:18:39;;;;;;;6.05;1.35;;;;;;;;;;4912814;29;20064;-71
2021/11/27 01:21:13;;;;;;;2.13;1.10;;;;;;;;;;4931466;29;20163;-65
2021/11/27 01:23:44;;;;;;;2.95;1.30;;;;;;;;;;4931459;29;20051;-65
2021/11/27 01:26:16;;;;;;;4.63;1.50;;;;;;;;;;4945922;28;20066;-65
2021/11/27 01:28:47;;;;;;;5.15;1.60;;;;;;;;;;4964605;28;20418;-65
2021/11/27 01:31:17;;;;;;;3.58;1.65;;;;;;;;;;4943763;28;20086;-66
2021/11/27 01:33:48;;;;;;;3.70;1.30;;;;;;;;;;4914446;29;20194;-67
2021/11/27 01:36:19;;;;;;;5.13;1.60;;;;;;;;;;4950080;28;20052;-68
2021/11/27 01:38:50;;;;;;;2.40;1.40;;;;;;;;;;4950698;29;20451;-67
2021/11/27 01:41:20;;;;;;;6.07;1.70;;;;;;;;;;4950451;29;20063;-66
2021/11/27 01:43:51;;;;;;;3.60;2.10;;;;;;;;;;4926827;29;20052;-65
2021/11/27 01:46:23;;;;;;;2.75;1.35;;;;;;;;;;4948159;29;20054;-66
2021/11/27 01:48:54;;;;;;;3.38;1.60;;;;;;;;;;4889854;29;20053;-66
2021/11/27 01:51:24;;;;;;;4.53;1.52;;;;;;;;;;4875224;29;20057;-72
2021/11/27 01:54:02;;;;;;;4.75;1.80;;;;;;;;;;4912148;29;20114;-65
2021/11/27 01:56:37;;;;;;;5.38;1.70;;;;;;;;;;4927478;29;21304;-66
2021/11/27 01:59:14;;;;;;;6.28;1.83;;;;;;;;;;4878627;29;20495;-69
2021/11/27 02:01:46;;;;;;;3.78;1.80;;;;;;;;;;4847825;29;20443;-69
2021/11/27 02:04:23;;;;;;;4.05;1.90;;;;;;;;;;4859562;29;20111;-66
2021/11/27 02:06:55;;;;;;;5.22;1.70;;;;;;;;;;4846889;29;20085;-66
2021/11/27 02:09:29;;;;;;;5.47;1.65;;;;;;;;;;4872345;29;20045;-66
2021/11/27 02:12:04;;;;;;;4.47;2.17;;;;;;;;;;4859425;29;20056;-67
2021/11/27 02:14:37;;;;;;;7.88;1.92;;;;;;;;;;4799168;29;20629;-70
2021/11/27 02:17:20;;;;;;;6.22;2.10;;;;;;;;;;4807314;29;20050;-67
2021/11/27 02:19:54;;;;;;;4.60;1.90;;;;;;;;;;4877572;29;20057;-67
2021/11/27 02:22:27;;;;;;;4.70;2.53;;;;;;;;;;4877933;29;20076;-66
2021/11/27 02:24:58;;;;;;;7.25;1.65;;;;;;;;;;4845571;29;20058;-65
2021/11/27 02:27:29;;;;;;;2.53;1.63;;;;;;;;;;4861592;29;20080;-66
2021/11/27 02:30:04;;;;;;;4.50;1.88;;;;;;;;;;4859315;29;20061;-68
2021/11/27 02:32:34;;;;;;;;;;;;;;;;;;4843496;29;20054;-66
2021/11/27 02:35:06;;;;;;;9.02;2.30;;;;;;;;;;4861853;29;19931;-66
2021/11/27 02:37:37;;;;;;;4.45;1.90;;;;;;;;;;4873640;29;20430;-66
2021/11/27 02:40:08;;;;;;;5.55;2.10;;;;;;;;;;4844743;29;20551;-66
2021/11/27 02:42:39;;;;;;;4.97;1.92;;;;;;;;;;4827015;29;20470;-66
2021/11/27 02:45:12;;;;;;;4.63;2.53;;;;;;;;;;4840566;29;20062;-66
2021/11/27 02:47:43;;;;;;;4.32;2.10;;;;;;;;;;4840726;29;20058;-71
2021/11/27 02:50:14;;;;;;;8.02;2.42;;;;;;;;;;4840874;29;20174;-66
2021/11/27 02:52:45;;;;;;;6.78;2.22;;;;;;;;;;4812855;29;20781;-66
2021/11/27 02:55:15;;;;;;;6.53;2.17;;;;;;;;;;4822305;29;20483;-67
2021/11/27 02:57:46;;;;;;;8.43;2.72;;;;;;;;;;4827994;29;20471;-68
2021/11/27 03:00:20;;;;;;;6.03;2.50;;;;;;;;;;4822037;29;20058;-66
2021/11/27 03:02:51;;;;;;;6.03;2.65;;;;;;;;;;4858653;29;20056;-66
2021/11/27 03:05:23;;;;;;;4.75;2.38;;;;;;;;;;4848315;29;20054;-65
2021/11/27 03:07:53;;;;;;;5.18;2.67;;;;;;;;;;4858286;29;20064;-66
2021/11/27 03:10:24;;;;;;;7.53;2.63;;;;;;;;;;4867870;29;20068;-68
2021/11/27 03:12:57;;;;;;;9.25;3.33;;;;;;;;;;4876879;29;20080;-66
2021/11/27 03:15:28;;;;;;;7.43;2.90;;;;;;;;;;4861823;29;20060;-66
2021/11/27 03:17:59;;;;;;;11.65;3.13;;;;;;;;;;4908829;29;21067;-66
2021/11/27 03:20:29;;;;;;;9.07;3.20;;;;;;;;;;4942043;28;20052;-70
2021/11/27 03:23:01;;;;;;;6.15;2.90;;;;;;;;;;4952613;28;20511;-66
2021/11/27 03:25:33;;;;;;;9.95;3.47;;;;;;;;;;4924199;29;20044;-66
2021/11/27 03:28:05;;;;;;;5.47;2.95;;;;;;;;;;4952206;28;20145;-66
2021/11/27 03:30:35;;;;;;;6.30;3.13;;;;;;;;;;4926905;29;20055;-66
2021/11/27 03:33:09;;;;;;;10.57;3.25;;;;;;;;;;4904608;29;20057;-66
2021/11/27 03:35:41;;;;;;;6.07;2.90;;;;;;;;;;4929536;29;20048;-67
2021/11/27 03:38:13;;;;;;;8.18;3.28;;;;;;;;;;4922050;29;20766;-66
2021/11/27 03:40:45;;;;;;;5.18;3.03;;;;;;;;;;4902593;29;20045;-69
2021/11/27 03:43:16;;;;;;;9.90;2.92;;;;;;;;;;4895202;29;20059;-66
2021/11/27 03:45:46;;;;;;;12.85;3.15;;;;;;;;;;4895177;29;20430;-68
2021/11/27 03:48:35;;;;;;;7.20;3.10;;;;;;;;;;4876295;29;20057;-67
2021/11/27 03:51:17;;;;;;;8.00;3.40;;;;;;;;;;4876719;29;20470;-69
2021/11/27 03:53:48;;;;;;;6.20;2.92;;;;;;;;;;4876748;29;20053;-66
2021/11/27 03:56:29;;;;;;;7.18;3.00;;;;;;;;;;4876614;29;20053;-68
2021/11/27 03:59:05;;;;;;;7.07;3.03;;;;;;;;;;4826553;29;20058;-67
2021/11/27 04:01:36;;;;;;;5.93;2.85;;;;;;;;;;4853470;29;20147;-67
2021/11/27 04:04:08;;;;;;;8.93;3.22;;;;;;;;;;4876694;29;20060;-66
2021/11/27 04:06:39;;;;;;;5.88;2.97;;;;;;;;;;4894681;29;20048;-66
2021/11/27 04:09:11;;;;;;;7.70;3.42;;;;;;;;;;4891782;29;20053;-66
2021/11/27 04:11:43;;;;;;;8.05;3.38;;;;;;;;;;4838972;29;20423;-67
2021/11/27 04:14:22;;;;;;;6.38;3.28;;;;;;;;;;4841251;29;20074;-69
2021/11/27 04:16:59;;;;;;;8.35;3.30;;;;;;;;;;4857877;29;20105;-66
2021/11/27 04:19:31;;;;;;;;;;;;;;;;;;4893358;29;20059;-67
2021/11/27 04:22:03;;;;;;;8.00;3.28;;;;;;;;;;4880403;29;19924;-69
2021/11/27 04:24:36;;;;;;;9.27;3.55;;;;;;;;;;4857823;29;20482;-66
2021/11/27 04:27:07;;;;;;;8.73;3.67;;;;;;;;;;4857860;29;20105;-66
2021/11/27 04:29:38;;;;;;;9.95;3.55;;;;;;;;;;4853574;29;20058;-66
2021/11/27 04:32:08;;;;;;;8.55;3.80;;;;;;;;;;4857527;29;20555;-66
2021/11/27 04:34:42;;;;;;;10.13;3.97;;;;;;;;;;4861486;29;20053;-66
2021/11/27 04:37:15;;;;;;;9.23;3.85;;;;;;;;;;4907226;29;20048;-68
2021/11/27 04:39:46;;;;;;;7.97;3.67;;;;;;;;;;4931879;29;20063;-66
2021/11/27 04:42:16;;;;;;;8.55;4.00;;;;;;;;;;4931823;29;20083;-68
2021/11/27 04:44:47;;;;;;;7.13;3.58;;;;;;;;;;4905036;29;20057;-70
2021/11/27 04:47:18;;;;;;;6.57;3.70;;;;;;;;;;4881602;29;20060;-67
2021/11/27 04:49:49;;;;;;;6.45;3.47;;;;;;;;;;4864771;29;20057;-69
2021/11/27 04:52:21;;;;;;;6.78;3.97;;;;;;;;;;4882609;29;20045;-66
2021/11/27 04:54:52;;;;;;;8.00;3.83;;;;;;;;;;4893433;29;20063;-69
2021/11/27 04:57:23;;;;;;;6.40;3.33;;;;;;;;;;4894069;29;20073;-66
2021/11/27 04:59:54;;;;;;;8.02;3.22;;;;;;;;;;4897077;29;20052;-69
2021/11/27 05:02:25;;;;;;;7.35;3.88;;;;;;;;;;4835224;29;20061;-66
2021/11/27 05:04:55;;;;;;;14.10;4.25;;;;;;;;;;4903294;29;20051;-67
2021/11/27 05:07:26;;;;;;;7.55;4.20;;;;;;;;;;4864629;29;20049;-68
2021/11/27 05:09:58;;;;;;;6.72;3.75;;;;;;;;;;4856768;29;20053;-67
2021/11/27 05:12:31;;;;;;;6.68;3.65;;;;;;;;;;4874842;29;20061;-67
2021/11/27 05:15:03;;;;;;;7.18;3.50;;;;;;;;;;4834593;29;20573;-67
2021/11/27 05:17:36;;;;;;;8.13;3.67;;;;;;;;;;4846069;29;20053;-67
2021/11/27 05:20:17;;;;;;;8.02;3.58;;;;;;;;;;4845153;29;20057;-67
2021/11/27 05:22:47;;;;;;;7.50;3.80;;;;;;;;;;4879617;29;20055;-66
2021/11/27 05:25:17;;;;;;;8.70;3.55;;;;;;;;;;4894085;29;20052;-67
2021/11/27 05:28:06;;;;;;;9.95;3.67;;;;;;;;;;4893950;29;20061;-67
2021/11/27 05:31:06;;;;;;;7.22;3.45;;;;;;;;;;4875305;29;20056;-66
2021/11/27 05:36:18;;;;;;;9.18;3.70;;;;;;;;;;4874493;29;20049;-66
2021/11/27 05:38:49;;;;;;;9.88;4.07;;;;;;;;;;4890052;29;20065;-67
2021/11/27 05:41:20;;;;;;;10.68;4.07;;;;;;;;;;4860107;29;20065;-67
2021/11/27 05:43:50;;;;;;;9.02;3.90;;;;;;;;;;4893590;29;20105;-67
2021/11/27 05:46:21;;;;;;;7.95;4.32;;;;;;;;;;4915606;29;20051;-69
2021/11/27 05:48:51;;;;;;;8.63;3.95;;;;;;;;;;4931498;29;20128;-67
2021/11/27 05:51:22;;;;;;;12.05;3.60;;;;;;;;;;4934309;29;20056;-66
2021/11/27 05:53:52;;;;;;;8.73;3.88;;;;;;;;;;4931077;29;20066;-70
2021/11/27 05:56:23;;;;;;;7.43;3.70;;;;;;;;;;4875604;29;20053;-67
2021/11/27 05:58:55;;;;;;;10.32;3.60;;;;;;;;;;4874792;29;20081;-69
2021/11/27 06:01:27;;;;;;;7.13;3.95;;;;;;;;;;4857940;29;20050;-68
2021/11/27 06:03:57;;;;;;;9.98;3.67;;;;;;;;;;4892701;29;20064;-67
2021/11/27 06:06:28;;;;;;;10.38;4.00;;;;;;;;;;4874431;29;20137;-66
2021/11/27 06:08:59;;;;;;;10.00;4.22;;;;;;;;;;4911374;29;20052;-69
2021/11/27 06:11:31;;;;;;;8.52;4.00;;;;;;;;;;4896657;29;20056;-67
2021/11/27 06:14:04;;;;;;;11.05;4.15;;;;;;;;;;4892993;29;20053;-71
2021/11/27 06:16:38;;;;;;;7.85;3.78;;;;;;;;;;4911867;29;20052;-67
2021/11/27 06:19:08;;;;;;;8.50;4.00;;;;;;;;;;4911715;29;20425;-68
2021/11/27 06:21:39;;;;;;;7.22;4.45;;;;;;;;;;4912273;29;20140;-67
2021/11/27 06:24:11;;;;;;;9.93;4.05;;;;;;;;;;4901830;29;20064;-68
2021/11/27 06:26:41;;;;;;;10.95;5.03;;;;;;;;;;4893108;29;20087;-67
2021/11/27 06:29:12;;;;;;;11.23;4.43;;;;;;;;;;4893122;29;20056;-67
2021/11/27 06:31:42;;;;;;;11.20;4.75;;;;;;;;;;4911762;29;20159;-68
2021/11/27 06:34:14;;;;;;;11.15;5.45;;;;;;;;;;4875750;29;20063;-68
2021/11/27 06:36:45;;;;;;;10.20;5.18;;;;;;;;;;4892978;29;20048;-68
2021/11/27 06:39:15;;;;;;;13.43;5.20;;;;;;;;;;4882883;29;20466;-67
2021/11/27 06:41:45;;;;;;;9.88;5.65;;;;;;;;;;4874425;29;20053;-67
2021/11/27 06:44:34;;;;;;;12.85;6.03;;;;;;;;;;4875524;29;20056;-67
2021/11/27 06:47:05;;;;;;;10.38;5.65;;;;;;;;;;4890319;29;20504;-68
2021/11/27 06:49:35;;;;;;;10.68;6.68;;;;;;;;;;4877288;29;20465;-68
2021/11/27 06:52:11;;;;;;;15.00;5.95;;;;;;;;;;4903446;29;20421;-66
2021/11/27 06:54:43;;;;;;;14.32;5.50;;;;;;;;;;4927131;29;20096;-68
2021/11/27 06:57:13;;;;;;;12.00;5.55;;;;;;;;;;4930874;29;20055;-68
2021/11/27 06:59:43;;;;;;;10.77;4.70;;;;;;;;;;4952587;29;20055;-67
2021/11/27 07:02:34;;;;;;;10.40;5.60;;;;;;;;;;4914799;29;20063;-68
2021/11/27 07:05:34;;;;;;;12.30;5.82;;;;;;;;;;4877357;29;20106;-70
2021/11/27 07:08:09;;;;;;;16.08;6.20;;;;;;;;;;4876915;29;20422;-67
2021/11/27 07:10:53;;;;;;;13.02;6.75;;;;;;;;;;4876974;29;20057;-68
2021/11/27 07:13:25;;;;;;;14.73;8.25;;;;;;;;;;4873390;29;20435;-67
2021/11/27 07:16:00;;;;;;;18.52;8.52;;;;;;;;;;4872617;29;20057;-68
2021/11/27 07:18:30;;;;;;;18.70;8.70;;;;;;;;;;4870671;29;20053;-67
2021/11/27 07:21:00;;;;;;;16.73;8.13;;;;;;;;;;4836087;29;20046;-69
2021/11/27 07:23:32;;;;;;;15.75;8.50;;;;;;;;;;4858108;29;20057;-67
2021/11/27 07:26:02;;;;;;;14.00;7.95;;;;;;;;;;4858341;29;20193;-68
2021/11/27 07:28:52;;;;;;;18.30;7.95;;;;;;;;;;4858424;29;20480;-67
2021/11/27 07:31:22;;;;;;;14.23;7.18;;;;;;;;;;4876621;29;20057;-69
2021/11/27 07:33:52;;;;;;;13.52;7.85;;;;;;;;;;4876590;29;20057;-67
2021/11/27 07:36:23;;;;;;;16.52;7.28;;;;;;;;;;4875153;29;20056;-67
2021/11/27 07:38:54;;;;;;;15.60;7.45;;;;;;;;;;4877955;29;20057;-67
2021/11/27 07:41:24;;;;;;;16.73;6.97;;;;;;;;;;4932870;29;20091;-70
2021/11/27 07:43:55;;;;;;;13.18;7.38;;;;;;;;;;4943889;29;20063;-67
2021/11/27 07:46:47;;;;;;;14.32;6.93;;;;;;;;;;4914235;29;20059;-67
2021/11/27 07:49:36;;;;;;;15.95;7.35;;;;;;;;;;4914711;29;20052;-68
2021/11/27 07:52:44;;;;;;;12.00;7.10;;;;;;;;;;4930958;29;20052;-67
2021/11/27 07:55:15;;;;;;;16.35;7.40;;;;;;;;;;4931352;29;20064;-67
2021/11/27 07:57:45;;;;;;;13.70;7.15;;;;;;;;;;4933151;29;20056;-67
2021/11/27 08:00:16;;;;;;;11.88;7.07;;;;;;;;;;4948598;29;20082;-71
2021/11/27 08:02:46;;;;;;;15.63;7.07;;;;;;;;;;4933053;29;20051;-67
2021/11/27 08:05:16;;;;;;;14.43;7.30;;;;;;;;;;4897618;29;20060;-67
2021/11/27 08:07:48;;;;;;;16.50;7.45;;;;;;;;;;4901043;28;20518;-67
2021/11/27 08:10:18;;;;;;;18.25;6.72;;;;;;;;;;4971101;28;20471;-68
2021/11/27 08:12:48;;;;;;;11.57;7.10;;;;;;;;;;4971077;28;20498;-68
2021/11/27 08:15:18;;;;;;;17.27;7.65;;;;;;;;;;4932408;29;20157;-67
2021/11/27 08:17:49;;;;;;;10.90;6.82;;;;;;;;;;4913129;29;20055;-69
2021/11/27 08:20:21;;;;;;;13.38;7.32;;;;;;;;;;4913176;29;20060;-67
2021/11/27 08:22:51;;;;;;;14.20;6.53;;;;;;;;;;4913141;29;20056;-66
2021/11/27 08:25:21;;;;;;;14.68;6.57;;;;;;;;;;4894012;29;20053;-68
2021/11/27 08:27:52;;;;;;;14.57;6.70;;;;;;;;;;4894262;29;20672;-67
2021/11/27 08:30:26;;;;;;;13.68;6.03;;;;;;;;;;4856984;29;20176;-67
2021/11/27 08:32:56;;;;;;;9.27;5.65;;;;;;;;;;4857477;29;20060;-67
2021/11/27 08:35:27;;;;;;;11.88;6.00;;;;;;;;;;4841428;29;20516;-73
2021/11/27 08:37:58;;;;;;;12.40;5.75;;;;;;;;;;4856802;29;20045;-67
2021/11/27 08:40:28;;;;;;;9.65;5.90;;;;;;;;;;4856644;29;20065;-70
2021/11/27 08:42:59;;;;;;;11.52;5.90;;;;;;;;;;4884739;29;20394;-67
2021/11/27 08:45:30;;;;;;;13.52;5.80;;;;;;;;;;4894010;29;20084;-68
2021/11/27 08:48:00;;;;;;;12.60;6.05;;;;;;;;;;4912726;29;20056;-68
2021/11/27 08:50:30;;;;;;;12.85;5.75;;;;;;;;;;4875072;29;20053;-67
2021/11/27 08:53:01;;;;;;;10.63;6.00;;;;;;;;;;4890399;29;20064;-67
2021/11/27 08:55:31;;;;;;;9.75;5.13;;;;;;;;;;4884105;29;20057;-67
2021/11/27 08:58:02;;;;;;;10.13;5.45;;;;;;;;;;4878341;29;20409;-67
2021/11/27 09:00:33;;;;;;;8.68;5.25;;;;;;;;;;4874819;29;20049;-67
2021/11/27 09:03:05;;;;;;;9.07;5.10;;;;;;;;;;4874949;29;20056;-67
2021/11/27 09:05:36;;;;;;;10.38;5.00;;;;;;;;;;4902914;29;20085;-67
2021/11/27 09:08:06;;;;;;;8.45;4.70;;;;;;;;;;4901669;29;20052;-70
2021/11/27 09:10:36;;;;;;;9.68;4.95;;;;;;;;;;4893585;29;20537;-67
2021/11/27 09:13:07;;;;;;;11.20;4.88;;;;;;;;;;4840821;29;20550;-68
2021/11/27 09:15:38;;;;;;;8.60;5.03;;;;;;;;;;4856188;29;20049;-67
2021/11/27 09:18:10;;;;;;;8.38;4.32;;;;;;;;;;4856411;29;20050;-68
2021/11/27 09:20:40;;;;;;;9.73;4.90;;;;;;;;;;4847045;29;20069;-69
2021/11/27 09:23:10;;;;;;;11.65;4.63;;;;;;;;;;4856671;29;20485;-70
2021/11/27 09:25:40;;;;;;;8.00;4.85;;;;;;;;;;4874658;29;20060;-67
2021/11/27 09:28:10;;;;;;;8.90;4.78;;;;;;;;;;4856236;29;20438;-68
2021/11/27 09:30:42;;;;;;;11.13;5.10;;;;;;;;;;4856236;29;20054;-66
2021/11/27 09:33:12;;;;;;;11.95;4.97;;;;;;;;;;4859737;29;20073;-67
2021/11/27 09:35:54;;;;;;;6.97;4.55;;;;;;;;;;4874527;29;20123;-67
2021/11/27 09:38:25;;;;;;;9.45;4.63;;;;;;;;;;4882656;29;20616;-68
2021/11/27 09:41:20;;;;;;;7.68;3.95;;;;;;;;;;4845544;29;20133;-67
2021/11/27 09:43:52;;;;;;;12.20;4.53;;;;;;;;;;4838100;29;20084;-68
2021/11/27 09:46:23;;;;;;;11.35;4.25;;;;;;;;;;4837968;29;20054;-68
2021/11/27 09:48:57;;;;;;;9.73;4.13;;;;;;;;;;4860365;29;20053;-67
2021/11/27 09:51:33;;;;;;;13.75;5.13;;;;;;;;;;4841836;29;20495;-68
2021/11/27 09:54:07;;;;;;;10.02;5.20;;;;;;;;;;4867743;29;20065;-66
2021/11/27 09:56:37;;;;;;;7.85;3.80;;;;;;;;;;4871602;29;20166;-67
2021/11/27 09:59:08;;;;;;;10.00;3.83;;;;;;;;;;4867379;29;20062;-67
2021/11/27 10:01:45;;;;;;;8.57;3.80;;;;;;;;;;4871262;29;20522;-67
2021/11/27 10:04:17;;;;;;;8.30;4.30;;;;;;;;;;4872716;29;20072;-68
2021/11/27 10:06:47;;;;;;;10.95;3.55;;;;;;;;;;4874809;29;20061;-68
2021/11/27 10:09:22;;;;;;;9.40;3.75;;;;;;;;;;4893155;29;20492;-67
2021/11/27 10:11:54;;;;;;;7.97;4.15;;;;;;;;;;4893504;29;20177;-67
2021/11/27 10:14:26;;;;;;;9.40;3.67;;;;;;;;;;4928477;29;20056;-69
2021/11/27 10:16:59;;;;;;;6.97;3.17;;;;;;;;;;4912108;29;20126;-68
2021/11/27 10:19:44;;;;;;;9.23;3.22;;;;;;;;;;4964298;28;20054;-68
2021/11/27 10:22:22;;;;;;;6.85;3.15;;;;;;;;;;4937459;29;20059;-68
2021/11/27 10:24:53;;;;;;;8.07;2.70;;;;;;;;;;4950155;28;20160;-69
2021/11/27 10:27:28;;;;;;;6.55;2.60;;;;;;;;;;4915277;29;20048;-67
2021/11/27 10:30:08;;;;;;;7.38;2.55;;;;;;;;;;4934331;29;20044;-67
2021/11/27 10:32:41;;;;;;;7.75;2.50;;;;;;;;;;4934729;29;20067;-67
2021/11/27 10:35:21;;;;;;;8.48;2.20;;;;;;;;;;4933944;29;20050;-68
2021/11/27 10:37:53;;;;;;;5.97;2.00;;;;;;;;;;4934207;29;20063;-68
2021/11/27 10:40:28;;;;;;;4.40;1.70;;;;;;;;;;4930671;29;20049;-67
2021/11/27 10:43:08;;;;;;;6.40;1.80;;;;;;;;;;4915236;29;20064;-67
2021/11/27 10:45:41;;;;;;;5.00;1.90;;;;;;;;;;4915472;29;20060;-66
2021/11/27 10:48:21;;;;;;;5.22;1.90;;;;;;;;;;4915157;29;20071;-67
2021/11/27 10:50:59;;;;;;;4.93;1.48;;;;;;;;;;4915259;29;20533;-67
2021/11/27 10:53:33;;;;;;;8.10;2.25;;;;;;;;;;4933645;29;20059;-67
2021/11/27 10:56:07;;;;;;;4.82;1.73;;;;;;;;;;4931137;29;20164;-66
2021/11/27 10:59:03;;;;;;;4.88;1.50;;;;;;;;;;4861445;29;20430;-68
2021/11/27 11:02:01;;;;;;;4.32;1.73;;;;;;;;;;4880914;29;20080;-68
2021/11/27 11:04:32;;;;;;;6.30;1.67;;;;;;;;;;4914926;29;20104;-67
2021/11/27 11:07:20;;;;;;;3.72;1.50;;;;;;;;;;4919583;29;20444;-66
2021/11/27 11:10:14;;;;;;;5.18;1.38;;;;;;;;;;4933619;29;20172;-66
2021/11/27 11:12:57;;;;;;;2.90;1.33;;;;;;;;;;4942431;29;20445;-66
2021/11/27 11:15:47;;;;;;;4.30;1.30;;;;;;;;;;4944248;29;20056;-65
2021/11/27 11:18:18;;;;;;;3.28;1.20;;;;;;;;;;4933535;29;20051;-66
2021/11/27 11:20:57;;;;;;;4.57;1.15;;;;;;;;;;4883162;29;20422;-67
2021/11/27 11:23:38;;;;;;;3.50;1.25;;;;;;;;;;4895687;29;20064;-66
2021/11/27 11:26:21;;;;;;;3.65;1.02;;;;;;;;;;4895940;29;20053;-64
2021/11/27 11:28:57;;;;;;;3.83;1.33;;;;;;;;;;4883785;29;20064;-65
2021/11/27 11:31:32;;;;;;;4.53;1.20;;;;;;;;;;4899593;29;20060;-66
2021/11/27 11:34:07;;;;;;;2.47;1.20;;;;;;;;;;4914813;29;20056;-70
2021/11/27 11:36:57;;;;;;;3.13;1.00;;;;;;;;;;4895168;29;20063;-65
2021/11/27 11:39:27;;;;;;;2.10;1.13;;;;;;;;;;4895311;29;20406;-68
2021/11/27 11:41:58;;;;;;;1.67;0.70;;;;;;;;;;4934878;29;20579;-64
2021/11/27 11:44:30;;;;;;;4.65;1.45;;;;;;;;;;4932865;29;20192;-65
2021/11/27 11:47:01;;;;;;;3.42;1.65;;;;;;;;;;4933094;29;20064;-65
2021/11/27 11:49:33;;;;;;;4.82;1.60;;;;;;;;;;4917620;29;20070;-64
2021/11/27 11:52:17;;;;;;;3.50;1.73;;;;;;;;;;4948418;28;20048;-64
2021/11/27 11:54:50;;;;;;;3.35;0.93;;;;;;;;;;4932610;29;20074;-64
2021/11/27 11:57:21;;;;;;;3.28;1.40;;;;;;;;;;4914672;29;20060;-64
2021/11/27 11:59:54;;;;;;;2.38;1.02;;;;;;;;;;4917538;29;20059;-67
2021/11/27 12:02:28;;;;;;;3.95;1.48;;;;;;;;;;4923706;28;20059;-64
2021/11/27 12:04:58;;;;;;;4.78;2.08;;;;;;;;;;4971121;28;20058;-65
2021/11/27 12:10:31;;;;;;;3.45;1.00;;;;;;;;;;4971077;28;20461;-67
2021/11/27 12:13:08;;;;;;;4.38;1.02;;;;;;;;;;4971040;28;20066;-67
2021/11/27 12:15:43;;;;;;;3.20;1.15;;;;;;;;;;4952226;28;20435;-70
2021/11/27 12:18:18;;;;;;;8.02;1.40;;;;;;;;;;4969883;28;20069;-65
2021/11/27 12:20:58;;;;;;;4.38;1.65;;;;;;;;;;4970764;28;20054;-68
2021/11/27 12:26:11;;;;;;;2.50;1.25;;;;;;;;;;4971084;28;20066;-66
2021/11/27 12:28:51;;;;;;;4.32;1.42;;;;;;;;;;4952764;28;20051;-65
2021/11/27 12:31:37;;;;;;;4.03;1.10;;;;;;;;;;4939048;28;20066;-64
2021/11/27 12:34:09;;;;;;;3.53;1.10;;;;;;;;;;4970435;28;20054;-64
2021/11/27 12:36:42;;;;;;;3.10;1.00;;;;;;;;;;4932120;29;20551;-68
2021/11/27 12:39:23;;;;;;;3.30;1.23;;;;;;;;;;4931872;29;20055;-65
2021/11/27 12:42:15;;;;;;;2.78;1.20;;;;;;;;;;4913215;29;20509;-65
2021/11/27 12:44:49;;;;;;;4.25;1.40;;;;;;;;;;4912811;29;20059;-65
2021/11/27 12:47:23;;;;;;;3.42;1.05;;;;;;;;;;4913197;29;20075;-65
2021/11/27 12:49:59;;;;;;;4.72;1.30;;;;;;;;;;4913029;29;20075;-64
2021/11/27 12:52:35;;;;;;;7.07;1.23;;;;;;;;;;4912820;29;20056;-67
2021/11/27 12:55:08;;;;;;;3.97;1.20;;;;;;;;;;4900424;29;20063;-70
2021/11/27 12:57:41;;;;;;;4.10;1.10;;;;;;;;;;4916631;28;20059;-68
2021/11/27 13:00:16;;;;;;;2.45;0.98;;;;;;;;;;4931781;29;20051;-65
2021/11/27 13:03:04;;;;;;;2.50;1.02;;;;;;;;;;4932162;29;20064;-64
2021/11/27 13:05:40;;;;;;;3.28;1.08;;;;;;;;;;4928067;29;20048;-65
2021/11/27 13:08:12;;;;;;;3.95;1.45;;;;;;;;;;4936573;28;20055;-64
2021/11/27 13:10:46;;;;;;;2.72;1.00;;;;;;;;;;4950864;28;20066;-64
2021/11/27 13:13:19;;;;;;;2.58;1.10;;;;;;;;;;4952399;28;20047;-64
2021/11/27 13:15:53;;;;;;;3.15;1.33;;;;;;;;;;4932849;28;20439;-64
2021/11/27 13:18:27;;;;;;;5.85;1.27;;;;;;;;;;4950798;28;20055;-67
2021/11/27 13:21:05;;;;;;;3.03;0.95;;;;;;;;;;4970045;28;20054;-65
2021/11/27 13:23:41;;;;;;;6.18;1.30;;;;;;;;;;4970111;28;20454;-65
2021/11/27 13:26:18;;;;;;;4.07;1.20;;;;;;;;;;4970237;28;20063;-64
2021/11/27 13:28:57;;;;;;;3.05;1.00;;;;;;;;;;4950721;28;20063;-64
2021/11/27 13:31:30;;;;;;;4.03;1.20;;;;;;;;;;4912152;29;20100;-68
2021/11/27 13:34:14;;;;;;;4.38;0.90;;;;;;;;;;4912927;29;20653;-64
2021/11/27 13:37:06;;;;;;;3.30;0.80;;;;;;;;;;4893593;29;20056;-65
2021/11/27 13:39:37;;;;;;;;;;;;;;;;;;4893996;29;20089;-64
2021/11/27 13:42:16;;;;;;;3.28;0.70;;;;;;;;;;4874534;29;19923;-63
2021/11/27 13:44:49;;;;;;;2.22;0.80;;;;;;;;;;4822867;29;20117;-63
2021/11/27 13:47:22;;;;;;;4.32;0.90;;;;;;;;;;4823085;29;20527;-66
2021/11/27 13:49:54;;;;;;;1.73;0.90;;;;;;;;;;4856087;29;20498;-63
2021/11/27 13:52:31;;;;;;;3.15;1.08;;;;;;;;;;4827098;29;20069;-68
2021/11/27 13:55:13;;;;;;;2.45;1.20;;;;;;;;;;4878388;29;20053;-63
2021/11/27 13:57:46;;;;;;;2.08;0.93;;;;;;;;;;4893653;29;20063;-63
2021/11/27 14:00:20;;;;;;;4.80;1.20;;;;;;;;;;4870397;29;20100;-64
2021/11/27 14:03:00;;;;;;;1.90;0.75;;;;;;;;;;4931494;29;20060;-63
2021/11/27 14:05:42;;;;;;;2.25;1.15;;;;;;;;;;4934855;29;20529;-64
2021/11/27 14:08:14;;;;;;;4.22;1.25;;;;;;;;;;4934402;29;20132;-64
2021/11/27 14:11:09;;;;;;;3.03;0.90;;;;;;;;;;4934890;29;20060;-64
2021/11/27 14:13:56;;;;;;;3.38;0.75;;;;;;;;;;4934898;29;20055;-63
2021/11/27 14:16:27;;;;;;;2.60;0.90;;;;;;;;;;4938102;28;20059;-63
2021/11/27 14:19:09;;;;;;;3.28;1.30;;;;;;;;;;4937838;29;20078;-67
2021/11/27 14:21:39;;;;;;;2.40;1.02;;;;;;;;;;4973176;28;20050;-63
2021/11/27 14:24:16;;;;;;;2.83;1.10;;;;;;;;;;4937598;28;20093;-63
2021/11/27 14:26:49;;;;;;;1.73;0.77;;;;;;;;;;4957479;28;20063;-63
2021/11/27 14:29:20;;;;;;;2.22;0.70;;;;;;;;;;4969358;28;20451;-64
2021/11/27 14:31:50;;;;;;;3.58;0.85;;;;;;;;;;4954261;28;20055;-64
2021/11/27 14:34:22;;;;;;;3.47;1.30;;;;;;;;;;4954883;28;20407;-65
2021/11/27 14:37:02;;;;;;;4.72;1.75;;;;;;;;;;4973340;28;20066;-64
2021/11/27 14:39:33;;;;;;;16.25;5.72;;;;;;;;;;4973051;28;20071;-64
2021/11/27 14:42:06;;;;;;;4.47;1.60;;;;;;;;;;4972784;28;20392;-65
2021/11/27 14:44:37;;;;;;;3.25;0.90;;;;;;;;;;4972297;28;20047;-64
2021/11/27 14:47:10;;;;;;;5.28;1.10;;;;;;;;;;4953248;28;20082;-67
2021/11/27 14:49:43;;;;;;;2.15;1.13;;;;;;;;;;4953622;28;20058;-66
2021/11/27 14:52:22;;;;;;;3.03;1.02;;;;;;;;;;4921192;28;20066;-69
2021/11/27 14:55:01;;;;;;;4.57;2.83;;;;;;;;;;4969078;28;20058;-65
2021/11/27 14:57:37;;;;;;;2.33;1.23;;;;;;;;;;4968882;28;20051;-66
2021/11/27 15:00:16;;;;;;;2.70;1.02;;;;;;;;;;4952989;28;20054;-64
2021/11/27 15:02:51;;;;;;;7.30;1.25;;;;;;;;;;4974239;28;20054;-64
2021/11/27 15:05:23;;;;;;;2.67;1.00;;;;;;;;;;4970866;28;20047;-65
2021/11/27 15:07:55;;;;;;;5.05;1.10;;;;;;;;;;4957387;28;20743;-64
2021/11/27 15:10:27;;;;;;;2.00;1.00;;;;;;;;;;4991526;28;20065;-64
2021/11/27 15:12:57;;;;;;;4.10;1.02;;;;;;;;;;4991516;28;20058;-64
2021/11/27 15:15:27;;;;;;;2.72;1.30;;;;;;;;;;4991565;28;20062;-65
2021/11/27 15:17:58;;;;;;;3.85;0.98;;;;;;;;;;4953176;28;20082;-65
2021/11/27 15:20:28;;;;;;;3.67;1.00;;;;;;;;;;4949344;29;20059;-64
2021/11/27 15:22:58;;;;;;;3.33;0.77;;;;;;;;;;4983335;28;20054;-64
2021/11/27 15:25:28;;;;;;;2.22;1.27;;;;;;;;;;4991378;28;20043;-64
2021/11/27 15:27:59;;;;;;;3.63;1.30;;;;;;;;;;4975653;28;20054;-67
2021/11/27 15:30:29;;;;;;;4.32;1.13;;;;;;;;;;4991185;28;20400;-69